createdAt,value
2022-08-05T00:01:48.530Z,28.19
2022-08-05T00:04:23.684Z,28.25
2022-08-05T00:06:52.061Z,28.33
2022-08-05T00:09:22.700Z,28.36
2022-08-05T00:11:59.671Z,28.34
2022-08-05T00:14:29.199Z,28.37
2022-08-05T00:17:01.825Z,28.43
2022-08-05T00:19:33.410Z,28.12
2022-08-05T00:22:11.765Z,28.22
2022-08-05T00:24:45.380Z,28.16
2022-08-05T00:27:35.939Z,28.26
2022-08-05T00:30:05.125Z,28.40
2022-08-05T00:32:38.998Z,28.13
2022-08-05T00:35:10.304Z,28.16
2022-08-05T00:37:53.548Z,28.08
2022-08-05T00:40:29.287Z,27.98
2022-08-05T00:42:59.197Z,27.93
2022-08-05T00:45:37.813Z,27.79
2022-08-05T00:48:09.493Z,27.68
2022-08-05T00:50:44.236Z,27.74
2022-08-05T00:54:00.738Z,27.85
2022-08-05T00:56:05.643Z,27.88
2022-08-05T00:58:36.167Z,27.87
2022-08-05T01:01:08.667Z,27.84
2022-08-05T01:03:39.604Z,27.71
2022-08-05T01:06:11.166Z,27.80
2022-08-05T01:08:48.974Z,27.97
2022-08-05T01:11:36.704Z,28.04
2022-08-05T01:14:32.556Z,28.05
2022-08-05T01:17:11.324Z,27.94
2022-08-05T01:20:02.865Z,27.71
2022-08-05T01:22:46.821Z,27.86
2022-08-05T01:25:40.367Z,27.66
2022-08-05T01:28:18.988Z,27.75
2022-08-05T01:30:53.765Z,27.72
2022-08-05T01:33:26.234Z,27.77
2022-08-05T01:35:59.033Z,27.81
2022-08-05T01:38:29.941Z,27.83
2022-08-05T01:41:01.798Z,27.87
2022-08-05T01:43:33.101Z,27.86
2022-08-05T01:46:16.141Z,27.85
2022-08-05T01:48:49.796Z,27.82
2022-08-05T01:51:18.849Z,27.75
2022-08-05T01:53:57.433Z,27.79
2022-08-05T01:58:12.772Z,27.90
2022-08-05T01:59:31.642Z,27.70
2022-08-05T02:02:01.896Z,27.81
2022-08-05T02:04:33.314Z,27.78
2022-08-05T02:07:03.408Z,27.92
2022-08-05T02:09:35.880Z,27.99
2022-08-05T02:12:32.808Z,27.95
2022-08-05T02:15:12.038Z,28.02
2022-08-05T02:18:32.359Z,27.98
2022-08-05T02:21:02.445Z,27.92
2022-08-05T02:23:33.864Z,27.89
2022-08-05T02:26:08.544Z,27.87
2022-08-05T02:28:45.988Z,27.81
2022-08-05T02:31:22.011Z,27.63
2022-08-05T02:34:03.739Z,27.53
2022-08-05T02:36:41.918Z,27.55
2022-08-05T02:39:12.599Z,27.39
2022-08-05T02:41:57.511Z,27.30
2022-08-05T02:44:36.549Z,27.21
2022-08-05T02:47:06.344Z,27.14
2022-08-05T02:49:40.611Z,27.00
2022-08-05T02:52:30.095Z,26.85
2022-08-05T02:55:01.928Z,26.85
2022-08-05T02:58:11.266Z,26.70
2022-08-05T03:00:25.348Z,26.59
2022-08-05T03:02:59.169Z,26.58
2022-08-05T03:06:57.090Z,26.51
2022-08-05T03:08:26.940Z,26.39
2022-08-05T03:11:01.188Z,26.39
2022-08-05T03:13:51.683Z,26.33
2022-08-05T03:16:41.297Z,26.17
2022-08-05T03:19:12.810Z,26.28
2022-08-05T03:21:48.939Z,26.25
2022-08-05T03:24:23.674Z,26.06
2022-08-05T03:26:59.033Z,26.09
2022-08-05T03:29:44.532Z,26.07
2022-08-05T03:32:14.248Z,25.96
2022-08-05T03:34:49.571Z,25.96
2022-08-05T03:37:21.776Z,25.92
2022-08-05T03:40:01.709Z,25.94
2022-08-05T03:42:41.468Z,25.87
2022-08-05T03:45:23.564Z,25.79
2022-08-05T03:47:51.621Z,25.67
2022-08-05T03:50:20.376Z,25.69
2022-08-05T03:55:50.017Z,25.58
2022-08-05T03:56:17.184Z,25.77
2022-08-05T03:58:57.673Z,25.96
2022-08-05T04:01:27.623Z,25.86
2022-08-05T04:04:09.723Z,25.85
2022-08-05T04:06:42.788Z,25.83
2022-08-05T04:09:20.185Z,25.96
2022-08-05T04:11:54.234Z,26.00
2022-08-05T04:14:29.469Z,26.04
2022-08-05T04:17:03.098Z,26.03
2022-08-05T04:19:31.270Z,26.00
2022-08-05T04:22:08.747Z,26.16
2022-08-05T04:24:52.589Z,26.34
2022-08-05T04:27:33.052Z,26.41
2022-08-05T04:30:11.670Z,26.47
2022-08-05T04:32:48.004Z,26.57
2022-08-05T04:35:19.577Z,26.55
2022-08-05T04:38:01.296Z,26.53
2022-08-05T04:40:44.450Z,26.26
2022-08-05T04:43:18.478Z,26.46
2022-08-05T04:45:55.677Z,26.62
2022-08-05T04:48:27.822Z,26.76
2022-08-05T04:51:02.696Z,26.97
2022-08-05T04:53:35.499Z,27.05
2022-08-05T04:56:32.979Z,27.32
2022-08-05T04:58:59.232Z,27.04
2022-08-05T05:02:06.057Z,27.02
2022-08-05T05:04:14.638Z,27.22
2022-08-05T05:06:44.652Z,27.60
2022-08-05T05:09:17.561Z,27.84
2022-08-05T05:11:53.237Z,28.19
2022-08-05T05:14:28.091Z,28.19
2022-08-05T05:17:03.298Z,28.13
2022-08-05T05:19:36.428Z,28.13
2022-08-05T05:22:23.739Z,28.28
2022-08-05T05:24:58.186Z,28.21
2022-08-05T05:27:44.195Z,28.32
2022-08-05T05:30:15.560Z,28.06
2022-08-05T05:33:00.770Z,28.05
2022-08-05T05:35:37.715Z,28.10
2022-08-05T05:38:09.188Z,28.26
2022-08-05T05:40:48.383Z,28.27
2022-08-05T05:43:54.097Z,28.20
2022-08-05T05:46:17.212Z,28.09
2022-08-05T05:48:48.118Z,27.96
2022-08-05T05:51:23.492Z,27.89
2022-08-05T05:53:58.099Z,27.58
2022-08-05T05:56:32.507Z,27.83
2022-08-05T05:59:06.661Z,27.53
2022-08-05T06:01:37.349Z,27.83
2022-08-05T06:04:16.361Z,27.78
2022-08-05T06:06:49.995Z,27.92
2022-08-05T06:09:27.484Z,28.29
2022-08-05T06:12:09.712Z,28.04
2022-08-05T06:14:40.295Z,28.18
2022-08-05T06:17:52.376Z,28.38
2022-08-05T06:20:00.337Z,28.51
2022-08-05T06:22:29.885Z,28.65
2022-08-05T06:24:57.837Z,28.73
2022-08-05T06:28:10.998Z,28.77
2022-08-05T06:30:16.858Z,28.87
2022-08-05T06:32:48.132Z,28.71
2022-08-05T06:36:03.180Z,28.91
2022-08-05T06:38:11.113Z,28.61
2022-08-05T06:40:47.418Z,29.17
2022-08-05T06:43:57.392Z,29.18
2022-08-05T06:46:07.668Z,29.23
2022-08-05T06:48:56.100Z,29.16
2022-08-05T06:51:30.100Z,29.33
2022-08-05T06:54:03.652Z,29.51
2022-08-05T06:56:33.399Z,29.63
2022-08-05T06:59:09.575Z,29.70
2022-08-05T07:01:40.887Z,29.93
2022-08-05T07:04:10.777Z,30.09
2022-08-05T07:06:41.748Z,30.23
2022-08-05T07:09:14.863Z,30.44
2022-08-05T07:11:47.902Z,30.26
2022-08-05T07:14:37.917Z,30.29
2022-08-05T07:18:00.459Z,30.38
2022-08-05T07:22:44.592Z,30.67
2022-08-05T07:25:54.472Z,31.03
2022-08-05T07:28:05.890Z,31.00
2022-08-05T07:30:39.149Z,30.83
2022-08-05T07:33:16.519Z,30.86
2022-08-05T07:36:02.607Z,31.16
2022-08-05T07:38:42.641Z,31.13
2022-08-05T07:41:35.124Z,31.22
2022-08-05T07:44:03.116Z,31.36
2022-08-05T07:46:33.696Z,31.50
2022-08-05T07:49:06.250Z,31.61
2022-08-05T07:51:48.645Z,31.36
2022-08-05T07:54:30.603Z,31.09
2022-08-05T07:57:41.997Z,31.25
2022-08-05T07:59:50.397Z,31.03
2022-08-05T08:02:18.546Z,31.34
2022-08-05T08:04:47.452Z,31.27
2022-08-05T08:07:15.372Z,31.59
2022-08-05T08:09:43.634Z,31.67
2022-08-05T08:12:37.419Z,31.90
2022-08-05T08:15:02.708Z,32.02
2022-08-05T08:17:35.310Z,32.19
2022-08-05T08:20:42.649Z,32.08
2022-08-05T08:22:59.433Z,31.96
2022-08-05T08:26:00.392Z,31.97
2022-08-05T08:28:35.536Z,31.72
2022-08-05T08:31:07.796Z,32.28
2022-08-05T08:33:37.921Z,32.16
2022-08-05T08:38:57.028Z,32.33
2022-08-05T08:41:52.259Z,32.60
2022-08-05T08:45:23.475Z,32.62
2022-08-05T08:47:47.651Z,32.60
2022-08-05T08:50:13.222Z,32.58
2022-08-05T08:52:51.835Z,32.88
2022-08-05T08:55:32.148Z,33.02
2022-08-05T08:58:09.986Z,32.88
2022-08-05T09:00:42.506Z,33.35
2022-08-05T09:03:11.826Z,33.02
2022-08-05T09:06:07.997Z,32.76
2022-08-05T09:08:31.373Z,33.13
2022-08-05T09:10:59.402Z,33.48
2022-08-05T09:13:31.403Z,33.47
2022-08-05T09:16:03.486Z,33.73
2022-08-05T09:18:31.058Z,34.01
2022-08-05T09:20:58.550Z,34.06
2022-08-05T09:23:28.877Z,34.14
2022-08-05T09:26:10.304Z,34.10
2022-08-05T09:28:43.993Z,34.52
2022-08-05T09:31:22.808Z,34.35
2022-08-05T09:34:04.497Z,34.19
2022-08-05T09:36:55.844Z,34.40
2022-08-05T09:39:41.362Z,34.58
2022-08-05T09:42:24.452Z,35.06
2022-08-05T09:44:57.460Z,35.19
2022-08-05T09:47:55.857Z,35.36
2022-08-05T09:50:37.737Z,35.72
2022-08-05T09:53:17.133Z,35.88
2022-08-05T09:56:04.661Z,35.59
2022-08-05T09:58:32.598Z,36.02
2022-08-05T10:01:13.388Z,36.31
2022-08-05T10:04:03.205Z,35.77
2022-08-05T10:06:31.876Z,35.70
2022-08-05T10:09:25.315Z,36.15
2022-08-05T10:12:18.543Z,36.42
2022-08-05T10:15:13.854Z,36.46
2022-08-05T10:17:54.499Z,36.79
2022-08-05T10:20:25.477Z,36.26
2022-08-05T10:22:53.018Z,36.70
2022-08-05T10:25:20.944Z,36.81
2022-08-05T10:28:13.192Z,36.60
2022-08-05T10:31:20.922Z,36.76
2022-08-05T10:33:29.573Z,36.69
2022-08-05T10:36:04.398Z,37.19
2022-08-05T10:38:34.054Z,36.94
2022-08-05T10:41:10.039Z,37.32
2022-08-05T10:44:13.578Z,36.79
2022-08-05T10:46:54.295Z,37.59
2022-08-05T10:49:27.018Z,37.88
2022-08-05T10:52:03.222Z,37.72
2022-08-05T10:55:04.192Z,37.59
2022-08-05T10:57:33.864Z,37.67
2022-08-05T11:00:18.497Z,37.82
2022-08-05T11:03:22.964Z,37.23
2022-08-05T11:06:16.032Z,37.75
2022-08-05T11:09:10.337Z,38.36
2022-08-05T11:11:52.136Z,37.66
2022-08-05T11:14:57.872Z,37.29
2022-08-05T11:17:56.722Z,37.43
2022-08-05T11:20:32.967Z,37.51
2022-08-05T11:23:06.032Z,37.49
2022-08-05T11:26:05.243Z,37.67
2022-08-05T11:28:26.819Z,37.97
2022-08-05T11:30:58.574Z,38.05
2022-08-05T11:33:43.875Z,37.75
2022-08-05T11:36:34.478Z,37.64
2022-08-05T11:39:08.191Z,37.38
2022-08-05T11:41:56.431Z,37.14
2022-08-05T11:44:40.355Z,36.95
2022-08-05T11:47:48.828Z,37.24
2022-08-05T11:50:10.093Z,37.32
2022-08-05T11:52:44.133Z,37.37
2022-08-05T11:55:14.651Z,37.85
2022-08-05T11:58:08.363Z,37.66
2022-08-05T12:00:38.578Z,37.41
2022-08-05T12:03:23.991Z,37.64
2022-08-05T12:06:00.868Z,37.73
2022-08-05T12:08:28.993Z,37.47
2022-08-05T12:11:05.677Z,37.37
2022-08-05T12:13:48.973Z,37.57
2022-08-05T12:16:25.514Z,37.45
2022-08-05T12:18:55.574Z,36.46
2022-08-05T12:21:24.775Z,36.38
2022-08-05T12:24:06.725Z,36.93
2022-08-05T12:26:50.081Z,36.82
2022-08-05T12:29:22.589Z,36.24
2022-08-05T12:31:55.174Z,36.67
2022-08-05T12:34:28.948Z,37.00
2022-08-05T12:36:58.659Z,36.69
2022-08-05T12:39:27.925Z,37.00
2022-08-05T12:42:02.775Z,36.69
2022-08-05T12:44:33.439Z,37.07
2022-08-05T12:47:02.792Z,37.18
2022-08-05T12:50:03.421Z,36.76
2022-08-05T12:52:39.663Z,36.81
2022-08-05T12:55:25.643Z,36.60
2022-08-05T12:58:50.572Z,36.77
2022-08-05T13:02:03.463Z,36.72
2022-08-05T13:03:33.100Z,36.74
2022-08-05T13:06:01.701Z,36.99
2022-08-05T13:08:30.349Z,36.92
2022-08-05T13:11:01.896Z,36.43
2022-08-05T13:14:04.930Z,36.77
2022-08-05T13:16:19.942Z,36.34
2022-08-05T13:18:55.145Z,37.02
2022-08-05T13:21:27.816Z,36.52
2022-08-05T13:23:56.534Z,36.51
2022-08-05T13:26:30.164Z,36.70
2022-08-05T13:28:59.143Z,37.16
2022-08-05T13:32:03.079Z,37.52
2022-08-05T13:34:20.920Z,37.23
2022-08-05T13:36:55.922Z,37.22
2022-08-05T13:40:14.484Z,37.09
2022-08-05T13:42:14.757Z,37.16
2022-08-05T13:44:45.920Z,37.52
2022-08-05T13:47:35.611Z,37.64
2022-08-05T13:50:08.152Z,37.52
2022-08-05T13:52:38.981Z,37.49
2022-08-05T13:55:09.826Z,37.52
2022-08-05T13:57:50.900Z,37.89
2022-08-05T14:00:26.732Z,37.36
2022-08-05T14:02:58.381Z,36.77
2022-08-05T14:05:48.418Z,37.40
2022-08-05T14:08:20.907Z,37.41
2022-08-05T14:11:03.287Z,37.43
2022-08-05T14:13:43.907Z,37.38
2022-08-05T14:16:16.938Z,37.36
2022-08-05T14:18:45.036Z,37.23
2022-08-05T14:22:07.280Z,37.43
2022-08-05T14:24:00.536Z,37.00
2022-08-05T14:26:36.828Z,37.30
2022-08-05T14:29:15.991Z,37.36
2022-08-05T14:32:02.379Z,37.13
2022-08-05T14:34:35.883Z,37.11
2022-08-05T14:37:04.826Z,37.45
2022-08-05T14:39:49.907Z,37.47
2022-08-05T14:42:22.302Z,37.54
2022-08-05T14:44:50.150Z,37.33
2022-08-05T14:47:58.324Z,37.46
2022-08-05T14:50:17.694Z,37.43
2022-08-05T14:52:53.627Z,36.91
2022-08-05T14:55:39.251Z,36.93
2022-08-05T14:58:11.347Z,37.10
2022-08-05T15:00:58.388Z,37.38
2022-08-05T15:03:33.341Z,37.39
2022-08-05T15:06:07.943Z,37.44
2022-08-05T15:08:59.233Z,36.92
2022-08-05T15:11:52.626Z,37.43
2022-08-05T15:14:33.631Z,37.36
2022-08-05T15:17:05.456Z,36.86
2022-08-05T15:19:42.166Z,36.83
2022-08-05T15:22:17.556Z,37.18
2022-08-05T15:24:45.237Z,37.42
2022-08-05T15:27:13.240Z,37.82
2022-08-05T15:29:42.299Z,37.88
2022-08-05T15:32:09.962Z,37.64
2022-08-05T15:34:37.518Z,37.65
2022-08-05T15:37:06.771Z,37.69
2022-08-05T15:41:00.836Z,37.70
2022-08-05T15:42:57.032Z,37.69
2022-08-05T15:45:18.779Z,37.73
2022-08-05T15:47:54.955Z,37.55
2022-08-05T15:50:25.346Z,37.30
2022-08-05T15:52:55.325Z,37.59
2022-08-05T15:55:24.613Z,37.60
2022-08-05T15:57:52.769Z,37.80
2022-08-05T16:00:26.285Z,37.53
2022-08-05T16:03:00.984Z,37.20
2022-08-05T16:05:29.766Z,37.05
2022-08-05T16:07:58.103Z,37.09
2022-08-05T16:10:27.019Z,36.85
2022-08-05T16:12:56.209Z,36.96
2022-08-05T16:15:24.149Z,37.19
2022-08-05T16:18:00.478Z,37.36
2022-08-05T16:20:31.694Z,37.36
2022-08-05T16:23:00.966Z,37.32
2022-08-05T16:25:32.295Z,36.69
2022-08-05T16:28:06.139Z,37.21
2022-08-05T16:30:34.361Z,37.20
2022-08-05T16:33:04.169Z,37.16
2022-08-05T16:35:32.375Z,36.90
2022-08-05T16:38:16.919Z,37.13
2022-08-05T16:40:55.474Z,37.02
2022-08-05T16:43:32.450Z,36.83
2022-08-05T16:46:04.637Z,37.16
2022-08-05T16:48:37.677Z,37.05
2022-08-05T16:51:10.104Z,37.03
2022-08-05T16:54:04.180Z,37.15
2022-08-05T16:56:30.836Z,37.22
2022-08-05T16:58:58.853Z,36.74
2022-08-05T17:01:52.504Z,37.02
2022-08-05T17:04:16.437Z,37.06
2022-08-05T17:06:53.467Z,36.99
2022-08-05T17:09:21.702Z,36.92
2022-08-05T17:11:54.781Z,36.93
2022-08-05T17:14:34.150Z,36.70
2022-08-05T17:17:03.892Z,36.80
2022-08-05T17:19:32.503Z,36.77
2022-08-05T17:22:01.461Z,36.71
2022-08-05T17:24:38.518Z,36.50
2022-08-05T17:27:07.990Z,36.39
2022-08-05T17:29:41.208Z,36.47
2022-08-05T17:32:11.320Z,36.35
2022-08-05T17:34:40.429Z,36.29
2022-08-05T17:37:32.141Z,36.19
2022-08-05T17:39:59.995Z,36.24
2022-08-05T17:42:31.950Z,36.21
2022-08-05T17:45:17.947Z,36.03
2022-08-05T17:47:55.319Z,36.04
2022-08-05T17:50:28.733Z,35.95
2022-08-05T17:53:01.991Z,35.87
2022-08-05T17:55:38.126Z,35.84
2022-08-05T17:58:11.303Z,35.76
2022-08-05T18:00:47.805Z,35.64
2022-08-05T18:06:11.671Z,35.50
2022-08-05T18:08:45.524Z,35.45
2022-08-05T18:11:23.200Z,35.38
2022-08-05T18:13:52.998Z,35.23
2022-08-05T18:16:20.806Z,35.18
2022-08-05T18:18:49.833Z,35.10
2022-08-05T18:21:19.951Z,35.06
2022-08-05T18:23:53.651Z,34.96
2022-08-05T18:26:27.820Z,34.89
2022-08-05T18:28:59.710Z,34.85
2022-08-05T18:31:32.927Z,34.78
2022-08-05T18:34:02.333Z,34.73
2022-08-05T18:36:30.265Z,34.70
2022-08-05T18:38:57.981Z,34.61
2022-08-05T18:41:56.634Z,34.54
2022-08-05T18:44:14.573Z,34.44
2022-08-05T18:47:01.045Z,34.30
2022-08-05T18:49:58.261Z,34.13
2022-08-05T18:52:35.752Z,33.97
2022-08-05T18:55:06.053Z,33.80
2022-08-05T18:57:49.918Z,33.76
2022-08-05T19:00:28.369Z,33.62
2022-08-05T19:02:57.821Z,33.49
2022-08-05T19:06:12.842Z,33.30
2022-08-05T19:08:22.445Z,33.16
2022-08-05T19:10:59.640Z,32.97
2022-08-05T19:13:35.971Z,32.87
2022-08-05T19:16:24.477Z,32.70
2022-08-05T19:18:53.766Z,32.60
2022-08-05T19:21:25.783Z,32.56
2022-08-05T19:24:05.320Z,32.42
2022-08-05T19:26:36.692Z,32.28
2022-08-05T19:29:35.491Z,32.25
2022-08-05T19:32:11.161Z,31.95
2022-08-05T19:34:39.285Z,31.92
2022-08-05T19:37:07.438Z,31.70
2022-08-05T19:39:45.931Z,31.72
2022-08-05T19:42:35.915Z,31.68
2022-08-05T19:45:05.665Z,31.50
2022-08-05T19:47:37.442Z,31.42
2022-08-05T19:50:07.802Z,31.31
2022-08-05T19:52:38.625Z,31.29
2022-08-05T19:56:11.754Z,31.28
2022-08-05T19:58:19.718Z,31.10
2022-08-05T20:00:42.448Z,31.15
2022-08-05T20:03:11.121Z,31.18
2022-08-05T20:05:43.174Z,31.14
2022-08-05T20:08:19.702Z,31.01
2022-08-05T20:10:49.643Z,30.89
2022-08-05T20:13:17.879Z,30.91
2022-08-05T20:15:51.502Z,30.70
2022-08-05T20:18:33.375Z,30.53
2022-08-05T20:21:05.263Z,30.44
2022-08-05T20:23:39.524Z,30.42
2022-08-05T20:26:24.678Z,30.40
2022-08-05T20:28:55.917Z,30.45
2022-08-05T20:31:36.836Z,30.36
2022-08-05T20:34:11.659Z,30.37
2022-08-05T20:36:43.223Z,30.39
2022-08-05T20:39:13.462Z,30.34
2022-08-05T20:41:45.164Z,30.34
2022-08-05T20:44:18.946Z,30.36
2022-08-05T20:46:59.181Z,30.30
2022-08-05T20:49:27.285Z,30.07
2022-08-05T20:51:57.220Z,30.34
2022-08-05T20:54:43.066Z,30.30
2022-08-05T20:57:15.237Z,30.33
2022-08-05T21:00:20.980Z,30.10
2022-08-05T21:02:57.032Z,30.00
2022-08-05T21:05:25.430Z,30.13
2022-08-05T21:08:06.417Z,29.94
2022-08-05T21:10:34.434Z,30.04
2022-08-05T21:13:08.766Z,30.14
2022-08-05T21:15:47.843Z,30.08
2022-08-05T21:18:18.990Z,30.18
2022-08-05T21:20:46.824Z,30.20
2022-08-05T21:23:15.314Z,30.09
2022-08-05T21:25:44.851Z,30.10
2022-08-05T21:28:13.010Z,30.13
2022-08-05T21:30:46.227Z,29.99
2022-08-05T21:33:22.349Z,29.97
2022-08-05T21:35:58.450Z,29.94
2022-08-05T21:38:27.707Z,29.84
2022-08-05T21:40:55.440Z,29.79
2022-08-05T21:43:24.445Z,29.71
2022-08-05T21:45:57.442Z,29.64
2022-08-05T21:48:28.765Z,29.52
2022-08-05T21:50:57.315Z,29.44
2022-08-05T21:53:27.595Z,29.42
2022-08-05T21:56:06.595Z,29.33
2022-08-05T21:58:57.293Z,28.89
2022-08-05T22:01:26.768Z,29.10
2022-08-05T22:03:54.659Z,28.99
2022-08-05T22:06:34.769Z,29.03
2022-08-05T22:09:13.887Z,29.02
2022-08-05T22:11:46.693Z,29.01
2022-08-05T22:14:35.857Z,29.05
2022-08-05T22:17:08.026Z,28.96
2022-08-05T22:20:02.074Z,28.99
2022-08-05T22:22:26.776Z,29.02
2022-08-05T22:25:18.122Z,28.93
2022-08-05T22:28:08.572Z,28.86
2022-08-05T22:30:55.612Z,28.60
2022-08-05T22:33:55.776Z,28.60
2022-08-05T22:36:16.421Z,28.69
2022-08-05T22:38:48.193Z,28.68
2022-08-05T22:42:04.962Z,28.75
2022-08-05T22:44:08.005Z,28.70
2022-08-05T22:46:39.957Z,28.67
2022-08-05T22:50:18.361Z,28.67
2022-08-05T22:52:04.774Z,28.70
2022-08-05T22:54:36.310Z,28.64
2022-08-05T22:57:10.012Z,28.54
2022-08-05T22:59:47.356Z,28.56
2022-08-05T23:02:29.624Z,28.50
2022-08-05T23:05:01.792Z,28.54
2022-08-05T23:07:33.756Z,28.50
2022-08-05T23:10:20.099Z,28.50
2022-08-05T23:12:54.215Z,28.51
2022-08-05T23:15:29.293Z,28.45
2022-08-05T23:18:03.189Z,28.58
2022-08-05T23:20:32.671Z,28.47
2022-08-05T23:23:08.722Z,28.45
2022-08-05T23:25:50.870Z,28.47
2022-08-05T23:28:29.016Z,28.39
2022-08-05T23:31:17.251Z,28.33
2022-08-05T23:34:05.614Z,28.25
2022-08-05T23:36:40.132Z,28.21
2022-08-05T23:39:17.219Z,28.25
2022-08-05T23:41:51.994Z,28.12
2022-08-05T23:44:25.166Z,28.15
2022-08-05T23:47:15.083Z,28.07
2022-08-05T23:49:46.302Z,28.11
2022-08-05T23:52:28.496Z,28.21
2022-08-05T23:55:00.597Z,28.06
2022-08-05T23:57:31.307Z,28.05
